カンゲルルススアーク の空港の天気 - METARとTAF

カンゲルルススアーク空港 ( BGSF / SFJ ) - グリーンランド カンゲルルススアーク
飛行場実況気象(Metar)
観測時間01/19 07:50 WGT (01/19 10:50 UTC)
風向・風速北北東 9m/s
視程-
天気現象弱いしゅう雪
なし
気温-13℃
湿度72%
気圧988hPa
METARBGSF 191050Z AUTO 02017KT 9999NDV -SHSN NCD M13/M17 Q0988
過去の天気等 Google飛行場航空写真 Wunderground天気予報

過去48時間のMETAR

飛行場予報(TAF)
発表時間: 1/19 01:51 WGT (1/19 04:51 UTC)
予報対象時間: 19日3時 WGT ~ 19日21時 WGT
風向・風速東北東 3m/s
視程10km以上
少しの雲 雲底高度 5180m
19日12時 WGT ~ 19日15時 WGT に徐々に
風向・風速西北西 5m/s
19日16時 WGT ~ 19日18時 WGT に徐々に
全天の8割程度の雲 雲底高度 1220m
19日18時 WGT ~ 19日21時 WGT に一時的に
視程3000m
天気現象弱い雪
全天の8割程度の雲 雲底高度 370m
TAF BGSF 190451Z 1906/1924 07005KT 9999 FEW170
BECMG 1915/1918 30010KT
BECMG 1919/1921 BKN040
TEMPO 1921/1924 3000 -SN BKN012